To NAV CANADA Home Page Login to a new session Search on AWWS site Feedback and Comments Disclaimer Vers la page française équivalente Tips FAQ What's new on the site To the Forecasts and Observations / NOTAM section To "File a Flight Plan" website Publications and other links Update of the User's profile FIC Telephone Numbers My Weather Data Folder Route Weather Data Regional Weather Data Local Weather Data To the Forecasts and Observations / NOTAM section
Request Generated 08/30/2015 at 15:51:29 UTC . Weather information available at that time is displayed.

METAR/TAF

KUUJJUAQ/QC    

METAR CYVP 301500Z 13004KT 15SM BKN025TCU BKN170 10/05 A2983 RMK
TCU6AC1 SLP103=
METAR CYVP 301400Z 15006KT 120V190 15SM SCT023 SCT080 SCT170 10/06
A2983 RMK CU4AC1AC1 AC TR AC TR SLP105=
METAR CYVP 301300Z VRB04KT 15SM FEW006 FEW080 FEW170 08/06 A2983 RMK
SF1AC1AC1 SF TR SLP104=

TAF CYVP 301139Z 3012/3024 VRB03KT P6SM FEW040
FM301400 VRB03KT P6SM BKN030 TEMPO 3014/3018 P6SM -SHRA
BECMG 3016/3018 07006KT
FM302000 06008KT P6SM BKN030 TEMPO 3020/3024 P6SM -SHRA BKN020
RMK NXT FCST BY 301800Z=
Your time UTC time
Weather data provided by Environment Canada and NAV CANADA